Time;durP1;ratioP1;P1;durP2;ratioP2;P2;SDS_P1;SDS_P2;PMS_P1;PMS_P2;Temp;Humidity;BMP_temperature;BMP_pressure;BME280_temperature;BME280_humidity;BME280_pressure;Samples;Min_cycle;Max_cycle;Signal;HPM_P1;HPM_P2
2023/04/27 00:02:12;;;;;;;6.10;2.95;;;;;;;;;;4977185;28;25134;-77
2023/04/27 00:04:38;;;;;;;5.88;3.17;;;;;;;;;;4978129;28;25051;-78
2023/04/27 00:07:04;;;;;;;7.18;3.35;;;;;;;;;;4988956;28;25090;-78
2023/04/27 00:09:30;;;;;;;14.48;4.63;;;;;;;;;;4995679;28;25064;-77
2023/04/27 00:11:56;;;;;;;7.68;3.58;;;;;;;;;;5004663;28;25120;-77
2023/04/27 00:14:22;;;;;;;7.43;3.15;;;;;;;;;;4974154;28;25094;-76
2023/04/27 00:16:48;;;;;;;6.57;3.75;;;;;;;;;;4975273;28;25137;-76
2023/04/27 00:19:15;;;;;;;7.03;3.33;;;;;;;;;;4995841;28;25073;-78
2023/04/27 00:21:41;;;;;;;12.98;4.18;;;;;;;;;;4967649;28;25098;-76
2023/04/27 00:24:07;;;;;;;13.90;4.45;;;;;;;;;;5003644;28;25066;-76
2023/04/27 00:26:33;;;;;;;6.40;4.00;;;;;;;;;;4975869;28;25107;-77
2023/04/27 00:29:00;;;;;;;6.47;3.88;;;;;;;;;;4983721;28;25093;-76
2023/04/27 00:31:26;;;;;;;7.22;4.60;;;;;;;;;;4985826;28;25116;-77
2023/04/27 00:33:52;;;;;;;8.30;4.05;;;;;;;;;;4978219;28;25086;-77
2023/04/27 00:36:18;;;;;;;8.75;4.07;;;;;;;;;;4977999;28;25065;-76
2023/04/27 00:38:44;;;;;;;8.57;4.25;;;;;;;;;;4978994;28;25086;-77
2023/04/27 00:41:10;;;;;;;7.72;3.83;;;;;;;;;;4982519;28;25103;-77
2023/04/27 00:43:43;;;;;;;10.38;4.03;;;;;;;;;;4984402;28;25067;-77
2023/04/27 00:46:09;;;;;;;6.28;3.53;;;;;;;;;;4982515;28;25059;-76
2023/04/27 00:48:35;;;;;;;6.50;3.85;;;;;;;;;;4979880;28;25102;-77
2023/04/27 00:51:02;;;;;;;8.15;3.58;;;;;;;;;;4990226;28;25081;-77
2023/04/27 00:53:28;;;;;;;8.07;3.75;;;;;;;;;;4982982;28;25164;-76
2023/04/27 00:55:56;;;;;;;8.35;4.50;;;;;;;;;;5005943;28;25073;-78
2023/04/27 00:58:22;;;;;;;10.38;4.82;;;;;;;;;;4994700;28;25075;-77
2023/04/27 01:00:48;;;;;;;9.52;4.25;;;;;;;;;;4989006;28;25110;-77
2023/04/27 01:03:14;;;;;;;14.10;4.20;;;;;;;;;;5001370;28;25090;-76
2023/04/27 01:05:41;;;;;;;10.43;4.78;;;;;;;;;;4976003;28;25054;-76
2023/04/27 01:08:07;;;;;;;8.35;4.20;;;;;;;;;;4989834;28;25074;-76
2023/04/27 01:10:33;;;;;;;8.70;4.90;;;;;;;;;;4983096;28;25099;-75
2023/04/27 01:12:59;;;;;;;8.23;4.68;;;;;;;;;;4968490;28;25088;-76
2023/04/27 01:15:26;;;;;;;11.98;4.18;;;;;;;;;;4970969;28;25143;-78
2023/04/27 01:17:58;;;;;;;7.43;4.57;;;;;;;;;;4998971;28;25064;-76
2023/04/27 01:20:29;;;;;;;11.38;4.97;;;;;;;;;;4982026;28;25076;-77
2023/04/27 01:22:55;;;;;;;9.82;4.20;;;;;;;;;;4968749;28;25059;-76
2023/04/27 01:25:21;;;;;;;8.50;4.30;;;;;;;;;;4977193;28;25063;-76
2023/04/27 01:27:47;;;;;;;9.35;4.32;;;;;;;;;;4973385;28;25064;-76
2023/04/27 01:30:14;;;;;;;8.88;5.18;;;;;;;;;;4982239;28;25068;-77
2023/04/27 01:32:40;;;;;;;18.98;4.70;;;;;;;;;;4976214;28;25044;-77
2023/04/27 01:35:06;;;;;;;8.50;4.28;;;;;;;;;;4972095;28;25057;-77
2023/04/27 01:37:32;;;;;;;13.07;4.15;;;;;;;;;;4983328;28;25061;-77
2023/04/27 01:39:58;;;;;;;9.68;4.47;;;;;;;;;;4978266;28;25076;-77
2023/04/27 01:42:24;;;;;;;7.05;3.42;;;;;;;;;;4974480;28;25081;-76
2023/04/27 01:44:50;;;;;;;7.40;4.55;;;;;;;;;;4975026;28;25152;-77
2023/04/27 01:47:16;;;;;;;7.32;4.47;;;;;;;;;;4974734;28;25135;-76
2023/04/27 01:49:43;;;;;;;11.00;4.63;;;;;;;;;;4998936;28;25078;-76
2023/04/27 01:52:09;;;;;;;6.68;3.88;;;;;;;;;;4973816;28;25136;-78
2023/04/27 01:54:35;;;;;;;8.77;4.15;;;;;;;;;;4985144;28;25095;-78
2023/04/27 01:57:01;;;;;;;16.45;4.70;;;;;;;;;;4979555;28;25129;-75
2023/04/27 01:59:27;;;;;;;12.30;4.30;;;;;;;;;;4973045;28;25091;-76
2023/04/27 02:01:55;;;;;;;9.75;4.70;;;;;;;;;;4975049;28;25065;-76
2023/04/27 02:04:21;;;;;;;9.07;5.20;;;;;;;;;;4974877;28;25073;-77
2023/04/27 02:06:47;;;;;;;10.13;4.75;;;;;;;;;;4980329;28;25076;-76
2023/04/27 02:09:13;;;;;;;8.88;4.55;;;;;;;;;;4983897;28;25108;-75
2023/04/27 02:11:39;;;;;;;10.77;5.60;;;;;;;;;;4986131;28;25072;-76
2023/04/27 02:14:05;;;;;;;15.60;4.97;;;;;;;;;;4995536;28;25058;-76
2023/04/27 02:16:31;;;;;;;13.18;5.50;;;;;;;;;;4983105;28;25156;-76
2023/04/27 02:18:58;;;;;;;7.35;4.45;;;;;;;;;;4983829;28;25079;-78
2023/04/27 02:21:24;;;;;;;7.70;5.13;;;;;;;;;;4982064;28;25082;-77
2023/04/27 02:23:49;;;;;;;9.05;5.03;;;;;;;;;;4978163;28;25064;-75
2023/04/27 02:26:16;;;;;;;10.00;5.32;;;;;;;;;;4979331;28;25066;-75
2023/04/27 02:28:42;;;;;;;13.70;5.60;;;;;;;;;;4983444;28;25103;-77
2023/04/27 02:31:08;;;;;;;12.35;5.78;;;;;;;;;;4978811;28;25080;-77
2023/04/27 02:33:34;;;;;;;13.98;5.47;;;;;;;;;;4983729;28;25059;-75
2023/04/27 02:36:00;;;;;;;12.95;5.85;;;;;;;;;;4979565;28;25080;-77
2023/04/27 02:38:26;;;;;;;15.88;6.00;;;;;;;;;;4977104;28;25078;-77
2023/04/27 02:40:53;;;;;;;12.35;6.32;;;;;;;;;;4994310;28;25110;-77
2023/04/27 02:43:20;;;;;;;17.17;6.82;;;;;;;;;;4973698;28;25094;-75
2023/04/27 02:45:45;;;;;;;14.52;6.78;;;;;;;;;;4979621;28;25079;-77
2023/04/27 02:48:11;;;;;;;25.33;7.00;;;;;;;;;;4977917;28;25072;-76
2023/04/27 02:50:41;;;;;;;14.10;7.50;;;;;;;;;;4986411;28;25193;-76
2023/04/27 02:53:07;;;;;;;21.17;8.07;;;;;;;;;;4987178;28;25093;-76
2023/04/27 02:55:33;;;;;;;18.73;8.07;;;;;;;;;;4975003;28;25077;-77
2023/04/27 02:57:59;;;;;;;27.23;7.88;;;;;;;;;;4983892;28;25152;-77
2023/04/27 03:00:25;;;;;;;16.85;7.45;;;;;;;;;;4984472;28;25070;-78
2023/04/27 03:02:52;;;;;;;21.65;9.10;;;;;;;;;;4988963;28;25160;-77
2023/04/27 03:05:18;;;;;;;16.98;7.57;;;;;;;;;;4978551;28;25063;-78
2023/04/27 03:07:44;;;;;;;18.10;7.80;;;;;;;;;;4980421;28;25082;-76
2023/04/27 03:10:10;;;;;;;18.13;7.93;;;;;;;;;;4972976;28;25073;-77
2023/04/27 03:12:36;;;;;;;16.83;7.78;;;;;;;;;;4972617;28;25057;-78
2023/04/27 03:15:02;;;;;;;21.05;7.85;;;;;;;;;;4977594;28;25108;-76
2023/04/27 03:17:28;;;;;;;19.73;7.97;;;;;;;;;;4973906;28;25067;-78
2023/04/27 03:19:54;;;;;;;22.90;7.30;;;;;;;;;;4980136;28;25082;-78
2023/04/27 03:22:20;;;;;;;18.38;8.93;;;;;;;;;;4975106;28;25065;-76
2023/04/27 03:24:46;;;;;;;19.05;8.57;;;;;;;;;;4979524;28;25067;-76
2023/04/27 03:27:13;;;;;;;18.80;8.32;;;;;;;;;;4978396;28;25101;-77
2023/04/27 03:29:39;;;;;;;18.13;8.63;;;;;;;;;;4975200;28;25066;-76
2023/04/27 03:32:05;;;;;;;18.13;8.50;;;;;;;;;;4978027;28;25073;-78
2023/04/27 03:34:31;;;;;;;18.55;7.97;;;;;;;;;;4978670;28;25066;-76
2023/04/27 03:36:57;;;;;;;18.67;7.18;;;;;;;;;;4984878;28;25098;-76
2023/04/27 03:39:23;;;;;;;18.67;9.38;;;;;;;;;;4991437;28;25092;-77
2023/04/27 03:41:49;;;;;;;21.52;8.43;;;;;;;;;;4973877;28;25117;-78
2023/04/27 03:44:15;;;;;;;18.10;8.30;;;;;;;;;;4997699;28;25062;-77
2023/04/27 03:46:41;;;;;;;23.60;8.93;;;;;;;;;;4985381;28;25047;-78
2023/04/27 03:49:07;;;;;;;24.15;9.35;;;;;;;;;;4988704;28;25070;-77
2023/04/27 03:51:33;;;;;;;24.38;9.18;;;;;;;;;;4984430;28;25055;-78
2023/04/27 03:53:59;;;;;;;15.70;7.75;;;;;;;;;;4985171;28;25080;-78
2023/04/27 03:56:25;;;;;;;20.30;9.38;;;;;;;;;;4986880;28;25064;-76
2023/04/27 03:58:52;;;;;;;18.85;8.18;;;;;;;;;;4995541;28;25061;-78
2023/04/27 04:01:18;;;;;;;23.70;9.07;;;;;;;;;;4988072;28;25151;-77
2023/04/27 04:03:47;;;;;;;24.58;9.77;;;;;;;;;;4978928;28;25090;-78
2023/04/27 04:06:13;;;;;;;20.33;8.20;;;;;;;;;;5010454;28;25109;-78
2023/04/27 04:08:39;;;;;;;20.67;8.07;;;;;;;;;;4990048;28;25080;-78
2023/04/27 04:11:05;;;;;;;17.50;9.05;;;;;;;;;;4987090;28;25060;-78
2023/04/27 04:13:31;;;;;;;13.95;7.45;;;;;;;;;;4984378;28;25080;-77
2023/04/27 04:16:04;;;;;;;16.48;7.47;;;;;;;;;;4982688;28;25078;-78
2023/04/27 04:18:30;;;;;;;16.98;8.05;;;;;;;;;;5000370;28;25096;-77
2023/04/27 04:20:56;;;;;;;14.30;7.38;;;;;;;;;;4992633;28;25097;-77
2023/04/27 04:23:22;;;;;;;14.77;7.68;;;;;;;;;;4985428;28;25132;-75
2023/04/27 04:25:48;;;;;;;12.48;6.40;;;;;;;;;;5004407;28;25050;-76
2023/04/27 04:28:15;;;;;;;14.55;7.63;;;;;;;;;;4984254;28;25076;-77
2023/04/27 04:30:42;;;;;;;14.63;7.47;;;;;;;;;;4983364;28;25082;-77
2023/04/27 04:33:11;;;;;;;19.30;7.78;;;;;;;;;;4994247;28;25099;-77
2023/04/27 04:35:37;;;;;;;13.80;6.88;;;;;;;;;;4986714;28;25073;-78
2023/04/27 04:38:04;;;;;;;13.30;6.72;;;;;;;;;;5002919;28;25055;-79
2023/04/27 04:40:30;;;;;;;14.13;6.22;;;;;;;;;;4984632;28;25070;-77
2023/04/27 04:42:56;;;;;;;13.18;6.82;;;;;;;;;;4985096;28;25096;-77
2023/04/27 04:45:22;;;;;;;12.77;6.50;;;;;;;;;;4987569;28;25071;-78
2023/04/27 04:47:53;;;;;;;16.33;6.72;;;;;;;;;;4971167;28;25070;-76
2023/04/27 04:50:19;;;;;;;9.10;5.95;;;;;;;;;;4991543;28;25056;-77
2023/04/27 04:52:45;;;;;;;14.43;6.68;;;;;;;;;;4996614;28;25133;-76
2023/04/27 04:55:11;;;;;;;12.48;6.88;;;;;;;;;;4982866;28;25048;-75
2023/04/27 04:57:37;;;;;;;13.60;7.35;;;;;;;;;;4982692;28;25078;-77
2023/04/27 05:00:05;;;;;;;12.10;6.45;;;;;;;;;;4981241;28;25100;-76
2023/04/27 05:02:31;;;;;;;14.63;5.95;;;;;;;;;;4989154;28;25084;-75
2023/04/27 05:04:57;;;;;;;12.88;6.38;;;;;;;;;;4967078;28;25058;-77
2023/04/27 05:07:23;;;;;;;10.10;5.80;;;;;;;;;;4974608;28;25066;-77
2023/04/27 05:09:49;;;;;;;10.13;5.93;;;;;;;;;;4981218;28;25061;-77
2023/04/27 05:12:15;;;;;;;14.98;5.65;;;;;;;;;;4981142;28;25050;-79
2023/04/27 05:14:42;;;;;;;12.25;5.72;;;;;;;;;;4978375;28;25133;-77
2023/04/27 05:17:08;;;;;;;10.63;6.03;;;;;;;;;;4980678;28;25081;-75
2023/04/27 05:19:34;;;;;;;12.43;6.88;;;;;;;;;;4974815;28;25130;-76
2023/04/27 05:22:00;;;;;;;11.23;5.30;;;;;;;;;;4984784;28;25045;-78
2023/04/27 05:24:26;;;;;;;11.55;5.07;;;;;;;;;;4994683;28;25064;-77
2023/04/27 05:26:53;;;;;;;11.02;5.45;;;;;;;;;;4975701;28;25067;-78
2023/04/27 05:29:19;;;;;;;11.75;6.45;;;;;;;;;;4989673;28;25095;-76
2023/04/27 05:31:45;;;;;;;10.85;5.38;;;;;;;;;;4976243;28;25055;-75
2023/04/27 05:34:12;;;;;;;13.32;6.10;;;;;;;;;;4973031;28;25131;-78
2023/04/27 05:36:38;;;;;;;7.93;4.85;;;;;;;;;;4969833;28;25090;-77
2023/04/27 05:39:04;;;;;;;11.60;5.32;;;;;;;;;;4969762;28;25153;-76
2023/04/27 05:41:30;;;;;;;8.05;5.47;;;;;;;;;;4972469;28;25061;-77
2023/04/27 05:43:56;;;;;;;10.85;5.30;;;;;;;;;;4973636;28;25128;-79
2023/04/27 05:46:22;;;;;;;8.82;5.53;;;;;;;;;;4969137;28;25061;-76
2023/04/27 05:48:48;;;;;;;9.52;5.25;;;;;;;;;;4973801;28;25088;-76
2023/04/27 05:51:14;;;;;;;14.18;5.57;;;;;;;;;;4987178;28;25160;-76
2023/04/27 05:53:40;;;;;;;14.85;6.10;;;;;;;;;;4971811;28;25108;-75
2023/04/27 05:56:06;;;;;;;9.90;5.15;;;;;;;;;;4964746;28;25061;-76
2023/04/27 05:58:32;;;;;;;13.55;4.88;;;;;;;;;;4965906;28;25063;-77
2023/04/27 06:00:59;;;;;;;9.35;4.43;;;;;;;;;;4973559;28;25133;-77
2023/04/27 06:03:25;;;;;;;11.90;5.03;;;;;;;;;;4972699;28;25096;-77
2023/04/27 06:05:55;;;;;;;7.90;4.50;;;;;;;;;;4981257;28;25157;-76
2023/04/27 06:08:21;;;;;;;7.57;4.10;;;;;;;;;;4977945;28;25144;-76
2023/04/27 06:10:47;;;;;;;8.43;4.80;;;;;;;;;;4976153;28;25108;-78
2023/04/27 06:13:13;;;;;;;9.25;5.00;;;;;;;;;;4966740;28;25071;-77
2023/04/27 06:15:39;;;;;;;10.50;4.47;;;;;;;;;;4965199;28;25053;-78
2023/04/27 06:18:05;;;;;;;9.85;4.30;;;;;;;;;;4992844;28;25074;-77
2023/04/27 06:20:31;;;;;;;12.18;4.25;;;;;;;;;;4981331;28;25080;-78
2023/04/27 06:22:58;;;;;;;9.77;4.55;;;;;;;;;;5002650;28;25053;-77
2023/04/27 06:25:26;;;;;;;11.55;3.65;;;;;;;;;;4992999;28;25082;-76
2023/04/27 06:27:52;;;;;;;10.82;4.45;;;;;;;;;;4993518;28;25057;-76
2023/04/27 06:30:18;;;;;;;6.50;4.68;;;;;;;;;;4997787;28;25071;-79
2023/04/27 06:32:44;;;;;;;9.10;3.95;;;;;;;;;;4989505;28;25073;-77
2023/04/27 06:35:10;;;;;;;6.95;3.38;;;;;;;;;;4987404;28;25074;-77
2023/04/27 06:37:36;;;;;;;6.03;3.95;;;;;;;;;;4996396;28;25056;-75
2023/04/27 06:40:02;;;;;;;8.63;3.63;;;;;;;;;;4998390;28;25055;-78
2023/04/27 06:42:28;;;;;;;9.73;4.03;;;;;;;;;;4985943;28;25069;-77
2023/04/27 06:44:55;;;;;;;7.38;3.72;;;;;;;;;;4998067;28;25059;-78
2023/04/27 06:47:21;;;;;;;8.02;4.13;;;;;;;;;;4981501;28;25080;-78
2023/04/27 06:49:47;;;;;;;8.43;3.72;;;;;;;;;;4979801;28;25069;-78
2023/04/27 06:52:13;;;;;;;11.23;3.63;;;;;;;;;;4973009;28;25076;-77
2023/04/27 06:54:39;;;;;;;7.65;3.95;;;;;;;;;;4960700;28;25090;-76
2023/04/27 06:57:06;;;;;;;10.80;3.70;;;;;;;;;;4982801;28;25152;-78
2023/04/27 06:59:32;;;;;;;10.68;3.83;;;;;;;;;;4970557;28;25111;-77
2023/04/27 07:01:58;;;;;;;8.25;3.75;;;;;;;;;;4972076;28;25095;-77
2023/04/27 07:04:24;;;;;;;6.10;4.10;;;;;;;;;;4977836;28;25130;-77
2023/04/27 07:06:50;;;;;;;7.35;4.07;;;;;;;;;;4975137;28;25045;-77
2023/04/27 07:09:16;;;;;;;9.70;4.40;;;;;;;;;;4989844;28;25085;-77
2023/04/27 07:11:42;;;;;;;11.55;4.07;;;;;;;;;;4976830;28;25069;-78
2023/04/27 07:14:08;;;;;;;10.48;4.07;;;;;;;;;;4973015;28;25051;-79
2023/04/27 07:16:34;;;;;;;7.55;3.72;;;;;;;;;;4976004;28;25073;-78
2023/04/27 07:19:00;;;;;;;8.63;3.78;;;;;;;;;;4969980;28;25058;-76
2023/04/27 07:21:27;;;;;;;9.38;3.72;;;;;;;;;;4976765;28;25073;-77
2023/04/27 07:23:53;;;;;;;11.48;4.32;;;;;;;;;;4969334;28;25071;-78
2023/04/27 07:26:20;;;;;;;11.85;4.13;;;;;;;;;;4969217;28;25155;-76
2023/04/27 07:28:46;;;;;;;6.22;3.40;;;;;;;;;;4969195;28;25071;-75
2023/04/27 07:31:13;;;;;;;9.05;4.45;;;;;;;;;;4974746;28;25063;-75
2023/04/27 07:33:39;;;;;;;8.35;3.70;;;;;;;;;;4975728;28;25074;-76
2023/04/27 07:36:06;;;;;;;12.80;4.15;;;;;;;;;;4976095;28;25101;-75
2023/04/27 07:38:32;;;;;;;6.30;3.42;;;;;;;;;;4978713;28;25060;-74
2023/04/27 07:40:58;;;;;;;11.05;4.03;;;;;;;;;;4984181;28;25075;-75
2023/04/27 07:43:24;;;;;;;6.28;3.40;;;;;;;;;;4985981;28;25083;-75
2023/04/27 07:45:50;;;;;;;6.78;3.85;;;;;;;;;;4971171;28;25146;-78
2023/04/27 07:48:17;;;;;;;17.83;4.03;;;;;;;;;;4979953;28;25078;-76
2023/04/27 07:50:43;;;;;;;7.85;3.72;;;;;;;;;;4970436;28;25079;-78
2023/04/27 07:53:09;;;;;;;10.02;3.97;;;;;;;;;;4967740;28;25067;-72
2023/04/27 07:55:35;;;;;;;5.68;3.28;;;;;;;;;;4971280;28;25087;-78
2023/04/27 07:58:01;;;;;;;7.88;3.90;;;;;;;;;;4972289;28;25152;-76
2023/04/27 08:00:27;;;;;;;7.05;3.72;;;;;;;;;;4964231;28;25075;-74
2023/04/27 08:02:53;;;;;;;10.60;3.95;;;;;;;;;;4968951;28;25081;-77
2023/04/27 08:05:20;;;;;;;9.60;3.88;;;;;;;;;;4967844;28;25059;-75
2023/04/27 08:07:46;;;;;;;5.93;3.60;;;;;;;;;;4968760;28;25157;-76
2023/04/27 08:10:12;;;;;;;9.38;3.58;;;;;;;;;;4965386;28;25093;-75
2023/04/27 08:12:38;;;;;;;7.05;4.40;;;;;;;;;;4965155;28;25126;-76
2023/04/27 08:15:05;;;;;;;7.95;3.22;;;;;;;;;;4984972;28;25125;-78
2023/04/27 08:17:31;;;;;;;9.80;4.05;;;;;;;;;;4972787;28;25063;-75
2023/04/27 08:19:57;;;;;;;7.32;3.97;;;;;;;;;;4967310;28;25052;-76
2023/04/27 08:22:23;;;;;;;6.68;3.47;;;;;;;;;;4971763;28;25060;-76
2023/04/27 08:24:49;;;;;;;9.50;4.20;;;;;;;;;;4968537;28;25085;-75
2023/04/27 08:27:15;;;;;;;5.68;3.10;;;;;;;;;;4972260;28;25053;-76
2023/04/27 08:29:46;;;;;;;12.60;3.90;;;;;;;;;;4965769;28;25079;-76
2023/04/27 08:32:12;;;;;;;8.30;3.42;;;;;;;;;;4966604;28;25069;-77
2023/04/27 08:34:38;;;;;;;8.32;3.42;;;;;;;;;;4987557;28;25099;-75
2023/04/27 08:37:04;;;;;;;7.70;3.70;;;;;;;;;;4969746;28;25063;-76
2023/04/27 08:39:30;;;;;;;10.75;3.50;;;;;;;;;;4969276;28;25064;-76
2023/04/27 08:41:57;;;;;;;9.10;3.55;;;;;;;;;;4969645;28;25070;-76
2023/04/27 08:44:23;;;;;;;9.38;4.25;;;;;;;;;;4964108;28;25098;-76
2023/04/27 08:46:50;;;;;;;8.00;3.85;;;;;;;;;;4970208;28;25061;-76
2023/04/27 08:49:16;;;;;;;6.72;3.75;;;;;;;;;;4975844;28;25085;-76
2023/04/27 08:51:42;;;;;;;6.43;4.00;;;;;;;;;;4977072;28;25091;-76
2023/04/27 08:54:08;;;;;;;6.70;4.00;;;;;;;;;;4964958;28;25094;-76
2023/04/27 08:56:34;;;;;;;9.10;3.88;;;;;;;;;;4971960;28;25082;-75
2023/04/27 08:59:03;;;;;;;7.95;3.67;;;;;;;;;;4965826;28;25128;-75
2023/04/27 09:01:29;;;;;;;10.70;4.05;;;;;;;;;;4963902;28;25053;-76
2023/04/27 09:03:58;;;;;;;6.72;3.38;;;;;;;;;;4967045;28;25068;-76
2023/04/27 09:06:34;;;;;;;7.88;3.00;;;;;;;;;;4961612;28;25074;-75
2023/04/27 09:09:01;;;;;;;7.22;3.53;;;;;;;;;;4965942;28;25067;-73
2023/04/27 09:11:29;;;;;;;6.07;3.17;;;;;;;;;;4962498;28;25064;-76
2023/04/27 09:13:55;;;;;;;5.45;3.70;;;;;;;;;;4955925;28;24995;-73
2023/04/27 09:16:25;;;;;;;8.45;3.78;;;;;;;;;;4961776;28;25175;-76
2023/04/27 09:18:51;;;;;;;6.28;3.30;;;;;;;;;;4959188;28;25054;-76
2023/04/27 09:21:27;;;;;;;5.93;3.30;;;;;;;;;;4960959;28;25099;-75
2023/04/27 09:23:54;;;;;;;7.55;4.20;;;;;;;;;;4967977;28;25065;-76
2023/04/27 09:26:24;;;;;;;6.68;3.35;;;11.70;97.20;;;;;;4957476;28;25090;-77
2023/04/27 09:28:51;;;;;;;6.78;3.22;;;;;;;;;;4960392;28;25068;-73
2023/04/27 09:31:18;;;;;;;9.18;3.70;;;;;;;;;;4959090;28;25097;-75
2023/04/27 09:33:45;;;;;;;4.90;3.80;;;;;;;;;;4964554;28;25099;-76
2023/04/27 09:36:11;;;;;;;8.88;3.50;;;;;;;;;;4962496;28;25068;-76
2023/04/27 09:38:37;;;;;;;6.88;3.83;;;;;;;;;;4970302;28;25139;-76
2023/04/27 09:41:03;;;;;;;11.45;3.60;;;;;;;;;;4968329;28;25055;-75
2023/04/27 09:43:30;;;;;;;12.43;3.50;;;;;;;;;;4965807;28;25078;-77
2023/04/27 09:45:56;;;;;;;8.05;4.13;;;;;;;;;;4960581;28;25082;-77
2023/04/27 09:48:22;;;;;;;8.25;3.15;;;;;;;;;;4962942;28;25148;-76
2023/04/27 09:50:50;;;;;;;7.82;3.55;;;;;;;;;;4973424;28;25072;-74
2023/04/27 09:53:20;;;;;;;9.20;4.13;;;;;;;;;;4971587;28;25116;-75
2023/04/27 09:55:48;;;;;;;6.93;3.22;;;;;;;;;;4963592;28;25059;-72
2023/04/27 09:58:30;;;;;;;9.13;3.67;;;;;;;;;;4971586;28;25134;-72
2023/04/27 10:01:10;;;;;;;10.63;3.80;;;;;;;;;;4965559;28;25052;-73
2023/04/27 10:03:51;;;;;;;6.03;3.10;;;;;;;;;;4966170;28;25064;-75
2023/04/27 10:06:46;;;;;;;7.90;3.83;;;;;;;;;;4972003;28;25110;-75
2023/04/27 10:09:12;;;;;;;5.85;3.08;;;;;;;;;;4970775;28;25102;-74
2023/04/27 10:11:47;;;;;;;7.90;3.35;;;;;;;;;;4966720;28;25125;-76
2023/04/27 10:14:18;;;;;;;6.80;3.10;;;;;;;;;;4971185;28;25062;-75
2023/04/27 10:16:54;;;;;;;8.63;3.88;;;;;;;;;;4969592;28;25056;-73
2023/04/27 10:19:22;;;;;;;4.68;3.15;;;;;;;;;;4974776;28;25106;-76
2023/04/27 10:21:52;;;;;;;6.30;3.13;;;;;;;;;;4970282;28;25054;-78
2023/04/27 10:24:18;;;;;;;6.53;4.10;;;;;;;;;;4974217;28;25063;-75
2023/04/27 10:26:47;;;;;;;8.63;3.45;;;;;;;;;;4974389;28;25109;-73
2023/04/27 10:29:15;;;;;;;4.28;2.83;;;;;;;;;;4973387;28;25128;-74
2023/04/27 10:31:47;;;;;;;4.72;3.10;;;;;;;;;;4982194;28;25077;-74
2023/04/27 10:34:17;;;;;;;6.57;3.30;;;;;;;;;;4974339;28;25169;-73
2023/04/27 10:36:43;;;;;;;6.47;3.28;;;;;;;;;;4980297;28;25067;-73
2023/04/27 10:39:16;;;;;;;12.43;4.40;;;;;;;;;;4981763;28;25077;-74
2023/04/27 10:41:49;;;;;;;9.65;3.70;;;;;;;;;;4988729;28;25053;-73
2023/04/27 10:44:16;;;;;;;5.55;3.50;;;;;;;;;;4982816;28;25065;-73
2023/04/27 10:46:50;;;;;;;7.63;3.47;;;;;;;;;;4982572;28;25074;-72
2023/04/27 10:49:16;;;;;;;7.07;3.53;;;;;;;;;;4977455;28;25067;-72
2023/04/27 10:51:42;;;;;;;4.78;3.33;;;;;;;;;;4994181;28;25055;-73
2023/04/27 10:54:08;;;;;;;7.78;4.07;;;;;;;;;;4982622;28;25079;-77
2023/04/27 10:56:34;;;;;;;9.52;3.85;;;;;;;;;;5006572;28;25164;-74
2023/04/27 10:59:06;;;;;;;7.45;3.83;;;;;;;;;;4980517;28;25078;-74
2023/04/27 11:01:32;;;;;;;11.82;4.78;;;;;;;;;;4972315;28;25168;-75
2023/04/27 11:03:59;;;;;;;7.97;4.50;;;;;;;;;;4980276;28;25050;-75
2023/04/27 11:06:27;;;;;;;5.15;3.80;;;;;;;;;;4975220;28;25065;-74
2023/04/27 11:08:53;;;;;;;8.10;3.33;;;;;;;;;;4975702;28;24962;-75
2023/04/27 11:11:20;;;;;;;5.15;3.35;;;;;;;;;;4974953;28;25074;-75
2023/04/27 11:13:48;;;;;;;7.35;3.20;;;;;;;;;;4980790;28;25136;-74
2023/04/27 11:16:15;;;;;;;6.40;3.90;;;;;;;;;;4973030;28;25080;-73
2023/04/27 11:18:41;;;;;;;9.20;4.43;;;;;;;;;;4998078;28;25172;-73
2023/04/27 11:21:07;;;;;;;8.88;4.28;;;;;;;;;;4974832;28;25068;-75
2023/04/27 11:23:37;;;;;;;5.88;2.88;;;;;;;;;;4974586;28;25071;-76
2023/04/27 11:26:10;;;;;;;4.88;3.38;;;;;;;;;;4974028;28;25063;-76
2023/04/27 11:28:36;;;;;;;4.38;3.65;;;;;;;;;;4969598;28;25053;-72
2023/04/27 11:31:05;;;;;;;6.88;3.10;;;;;;;;;;4975125;28;25042;-77
2023/04/27 11:33:31;;;;;;;5.53;3.40;;;;;;;;;;4969684;28;25058;-75
2023/04/27 11:35:58;;;;;;;6.25;4.15;;;;;;;;;;4978073;28;25107;-76
2023/04/27 11:38:25;;;;;;;8.98;3.88;;;;;;;;;;4977055;28;25062;-72
2023/04/27 11:41:01;;;;;;;11.10;4.63;;;;;;;;;;4971957;28;25071;-73
2023/04/27 11:43:27;;;;;;;7.60;4.05;;;;;;;;;;4971429;28;25156;-74
2023/04/27 11:45:54;;;;;;;8.88;4.28;;;;;;;;;;4971646;28;25057;-75
2023/04/27 11:48:22;;;;;;;7.55;4.35;;;;;;;;;;4977306;28;25065;-76
2023/04/27 11:50:49;;;;;;;6.70;3.88;;;;;;;;;;4971547;28;25087;-74
2023/04/27 11:53:15;;;;;;;5.47;4.10;;;;;;;;;;4979716;28;25083;-75
2023/04/27 11:55:42;;;;;;;5.80;4.30;;;;;;;;;;4975965;28;25062;-75
2023/04/27 11:58:14;;;;;;;8.52;4.07;;;;;;;;;;4981654;28;25135;-73
2023/04/27 12:00:41;;;;;;;6.85;4.32;;;;;;;;;;4976216;28;25147;-76
2023/04/27 12:03:07;;;;;;;6.35;3.78;;;;;;;;;;4979350;28;25081;-76
2023/04/27 12:05:33;;;;;;;10.00;5.10;;;;;;;;;;4976656;28;25082;-76
2023/04/27 12:07:59;;;;;;;8.38;4.85;;;;;;;;;;4975101;28;25073;-75
2023/04/27 12:10:25;;;;;;;8.88;5.00;;;;;;;;;;4975095;28;25067;-74
2023/04/27 12:12:51;;;;;;;9.45;5.65;;;;;;;;;;4976058;28;25064;-73
2023/04/27 12:15:19;;;;;;;6.38;3.97;;;;;;;;;;4976671;28;25096;-75
2023/04/27 12:17:45;;;;;;;9.40;5.57;;;;;;;;;;4994333;28;25079;-74
2023/04/27 12:20:12;;;;;;;11.05;6.78;;;;;;;;;;4982773;28;25075;-74
2023/04/27 12:22:37;;;;;;;9.85;4.55;;;;;;;;;;4970914;28;25106;-74
2023/04/27 12:25:04;;;;;;;7.63;4.15;;;;;;;;;;4975518;28;25084;-75
2023/04/27 12:27:31;;;;;;;9.57;5.57;;;;;;;;;;4973045;28;25055;-75
2023/04/27 12:29:58;;;;;;;5.28;3.95;;;;;;;;;;4980536;28;25051;-75
2023/04/27 12:32:24;;;;;;;10.15;4.75;;;;;;;;;;4975464;28;25075;-73
2023/04/27 12:34:50;;;;;;;9.85;4.43;;;;;;;;;;4972139;28;25064;-75
2023/04/27 12:37:16;;;;;;;8.50;4.95;;;;;;;;;;4971702;28;25046;-76
2023/04/27 12:39:42;;;;;;;6.13;4.68;;;;;;;;;;4974461;28;25062;-73
2023/04/27 12:42:08;;;;;;;14.40;4.55;;;;;;;;;;4970857;28;25080;-75
2023/04/27 12:44:35;;;;;;;8.05;4.47;;;;;;;;;;4967805;28;25062;-75
2023/04/27 12:47:01;;;;;;;5.97;4.50;;;;;;;;;;4969091;28;25128;-76
2023/04/27 12:49:27;;;;;;;7.13;4.38;;;;;;;;;;4978983;28;25069;-73
2023/04/27 12:51:53;;;;;;;6.85;4.03;;;;;;;;;;4970743;28;25097;-73
2023/04/27 12:54:18;;;;;;;5.95;3.92;;;;;;;;;;4968548;28;25997;-72
2023/04/27 12:56:45;;;;;;;9.15;4.53;;;;;;;;;;4969846;28;25084;-73
2023/04/27 12:59:11;;;;;;;8.10;4.38;;;;;;;;;;4974305;28;25080;-73
2023/04/27 13:01:37;;;;;;;7.45;5.00;;;;;;;;;;4973492;28;25114;-74
2023/04/27 13:04:07;;;;;;;7.93;5.18;;;;;;;;;;4968086;28;25071;-77
2023/04/27 13:06:33;;;;;;;9.68;5.68;;;;;;;;;;4978699;28;25050;-75
2023/04/27 13:09:00;;;;;;;7.22;5.05;;;;;;;;;;4969465;28;25076;-74
2023/04/27 13:11:26;;;;;;;6.97;5.32;;;;;;;;;;4966950;28;25140;-74
2023/04/27 13:13:53;;;;;;;8.77;5.18;;;;;;;;;;4960817;28;25100;-74
2023/04/27 13:16:21;;;;;;;8.82;5.30;;;;;;;;;;4967433;28;25079;-74
2023/04/27 13:18:49;;;;;;;7.35;5.05;;;;;;;;;;4963422;28;25075;-74
2023/04/27 13:21:15;;;;;;;9.90;5.47;;;;;;;;;;4963561;28;25077;-74
2023/04/27 13:23:41;;;;;;;10.93;5.20;;;;;;;;;;4974129;28;25059;-75
2023/04/27 13:26:07;;;;;;;9.73;4.75;;;;;;;;;;4962358;28;25085;-74
2023/04/27 13:28:33;;;;;;;6.05;4.22;;;;;;;;;;4977597;28;25145;-75
2023/04/27 13:30:59;;;;;;;9.32;4.82;;;;;;;;;;4968052;28;25085;-74
2023/04/27 13:33:25;;;;;;;7.80;4.70;;;;;;;;;;4978894;28;25096;-75
2023/04/27 13:35:51;;;;;;;9.25;4.90;;;;;;;;;;4973866;28;25058;-73
2023/04/27 13:38:17;;;;;;;6.25;3.97;;;;;;;;;;4974454;28;25060;-73
2023/04/27 13:40:43;;;;;;;10.18;4.93;;;;;;;;;;4965505;28;25136;-74
2023/04/27 13:43:09;;;;;;;10.27;4.60;;;;;;;;;;4973575;28;25145;-73
2023/04/27 13:45:35;;;;;;;7.05;4.43;;;;;;;;;;4969639;28;25163;-75
2023/04/27 13:48:01;;;;;;;9.27;4.53;;;;;;;;;;4974194;28;25099;-75
2023/04/27 13:50:27;;;;;;;11.32;4.75;;;;;;;;;;4971778;28;25069;-73
2023/04/27 13:52:53;;;;;;;8.70;4.65;;;;;;;;;;4961098;28;25095;-75
2023/04/27 13:55:19;;;;;;;7.75;5.03;;;;;;;;;;4965882;28;25061;-73
2023/04/27 13:57:45;;;;;;;7.78;5.30;;;;;;;;;;4973456;28;25131;-76
2023/04/27 14:00:11;;;;;;;11.70;4.50;;;;;;;;;;4961865;28;25058;-76
2023/04/27 14:02:37;;;;;;;10.30;5.45;;;;;;;;;;4960739;28;25079;-75
2023/04/27 14:05:04;;;;;;;12.07;4.90;;;;;;;;;;4986985;28;25509;-74
2023/04/27 14:07:34;;;;;;;10.93;5.05;;;;;;;;;;4975158;28;25138;-77
2023/04/27 14:10:00;;;;;;;9.80;5.38;;;;;;;;;;4964405;28;25075;-77
2023/04/27 14:12:26;;;;;;;9.25;4.97;;;;;;;;;;4964694;28;25075;-74
2023/04/27 14:14:52;;;;;;;11.45;5.30;;;;;;;;;;4972810;28;25084;-74
2023/04/27 14:17:18;;;;;;;9.18;4.53;;;;;;;;;;4970775;28;25132;-76
2023/04/27 14:19:44;;;;;;;8.95;4.15;;;;;;;;;;4978806;28;25071;-75
2023/04/27 14:22:10;;;;;;;7.25;4.50;;;;;;;;;;4973750;28;25059;-78
2023/04/27 14:24:36;;;;;;;7.45;5.10;;;;;;;;;;4974435;28;25073;-76
2023/04/27 14:27:02;;;;;;;8.40;4.97;;;;;;;;;;4975712;28;25118;-75
2023/04/27 14:29:28;;;;;;;6.03;4.47;;;;;;;;;;4964859;28;25088;-76
2023/04/27 14:31:54;;;;;;;14.40;4.93;;;;;;;;;;4968428;28;25109;-75
2023/04/27 14:34:21;;;;;;;7.18;4.43;;;;;;;;;;4970779;28;25155;-77
2023/04/27 14:36:47;;;;;;;6.78;5.00;;;;;;;;;;4973642;28;25156;-75